PWSweather.com
Personal Weather Stations
Station Observations
MUTNCOVE
Mouton Cove, Abbeville, LA 70510

Mouton CoveAbbeville, LA 70510

Lat: 29.875016, Lon: -92.218675

Elevation: 32

Station Type: Acurite 5-in-1

http://www.moutoncoveweather.com/

Latest ConditionsUpdated 10:30:04 AM CST Sunday, Jan 26, 2020
Currently Today's Max Today's Min Today's Average
Temperature 57.6°F14.2°C 57.6°F14.2°C 52.3°F11.3°C 53.8°F12.1°C
Dew Point 57.3°F14.1°C 57.3°F14.1°C 52.0°F11.1°C 53.1°F11.7°C
Winds 9.2 mph ESE14.8 kmh ESE 9.2 mph -14.8 kmh - - 5.9 mph 9.5 kmh
Wind Gusts 9.2 mph14.8 kmh 12.7 mph20.4 kmh - -
Humidity 99% 99% 93% 97%
Pressure 30.12 in1020.0 mb 30.26 in1024.7 mb 30.12 in1020.0 mb -
Precipitation - 0.94 in23.9 mm - -
Hour Temp Dew Point Humidity Winds Wind Gusts Pressure Precip Precip Rate Daily Precip Total
10:30 AM 57.6°F14.2°C 57.3°F14.1°C 99% 9.2 mph ESE14.8 kmh ESE 9.2 mph14.8 kmh 30.12 in1020.0 mb - 0.15 in3.8 mm 0.94 in23.9 mm
10:00 AM 55.2°F12.9°C 54.9°F12.7°C 99% 5.8 mph ESE9.3 kmh ESE 5.8 mph9.3 kmh 30.12 in1020.0 mb - 0.23 in5.8 mm 0.88 in22.4 mm
09:30 AM 53.8°F12.1°C 53.5°F11.9°C 99% 6.9 mph S11.1 kmh S 8.1 mph13.0 kmh 30.13 in1020.3 mb - 0.27 in6.9 mm 0.80 in20.3 mm
09:00 AM 53.1°F11.7°C 52.8°F11.6°C 99% 9.2 mph ESE14.8 kmh ESE 12.7 mph20.4 kmh 30.16 in1021.3 mb - 0.25 in6.4 mm 0.66 in16.8 mm
08:30 AM 53.1°F11.7°C 52.8°F11.6°C 99% 6.9 mph ESE11.1 kmh ESE 9.2 mph14.8 kmh 30.15 in1021.0 mb - 0.17 in4.3 mm 0.53 in13.5 mm
08:00 AM 52.7°F11.5°C 52.4°F11.3°C 99% 6.9 mph ESE11.1 kmh ESE 8.1 mph13.0 kmh 30.16 in1021.3 mb - 0.09 in2.3 mm 0.42 in10.7 mm
07:30 AM 52.3°F11.3°C 52.0°F11.1°C 99% 6.9 mph SE11.1 kmh SE 10.4 mph16.7 kmh 30.15 in1021.0 mb - 0.04 in1.0 mm 0.36 in9.1 mm
07:00 AM 52.3°F11.3°C 52.0°F11.1°C 99% 5.8 mph ESE9.3 kmh ESE 5.8 mph9.3 kmh 30.16 in1021.3 mb - 0.06 in1.5 mm 0.33 in8.4 mm
06:30 AM 52.9°F11.6°C 52.6°F11.4°C 99% 8.1 mph ESE13.0 kmh ESE 11.5 mph18.5 kmh 30.15 in1021.0 mb - 0.14 in3.6 mm 0.32 in8.1 mm
06:00 AM 53.2°F11.8°C 52.9°F11.6°C 99% 5.8 mph SE9.3 kmh SE 5.8 mph9.3 kmh 30.16 in1021.3 mb - 0.19 in4.8 mm 0.28 in7.1 mm
05:30 AM 53.2°F11.8°C 52.9°F11.6°C 99% 4.6 mph E7.4 kmh E 5.8 mph9.3 kmh 30.15 in1021.0 mb - 0.14 in3.6 mm 0.19 in4.8 mm
05:00 AM 53.2°F11.8°C 52.7°F11.5°C 98% 5.8 mph ESE9.3 kmh ESE 5.8 mph9.3 kmh 30.16 in1021.3 mb - 0.08 in2.0 mm 0.10 in2.5 mm
04:30 AM 53.6°F12.0°C 52.8°F11.6°C 97% 6.9 mph SE11.1 kmh SE 6.9 mph11.1 kmh 30.16 in1021.3 mb - 0.04 in1.0 mm 0.05 in1.3 mm
04:00 AM 54.3°F12.4°C 52.6°F11.4°C 94% 4.6 mph ESE7.4 kmh ESE 4.6 mph7.4 kmh 30.20 in1022.7 mb - 0.01 in0.3 mm 0.02 in0.5 mm
03:30 AM 54.5°F12.5°C 52.8°F11.6°C 94% 5.8 mph E9.3 kmh E 5.8 mph9.3 kmh 30.19 in1022.4 mb - 0.00 in0.0 mm 0.01 in0.3 mm
03:00 AM 54.5°F12.5°C 53.1°F11.7°C 95% 6.9 mph ESE11.1 kmh ESE 6.9 mph11.1 kmh 30.22 in1023.4 mb - 0.00 in0.0 mm 0.01 in0.3 mm
02:30 AM 54.5°F12.5°C 53.1°F11.7°C 95% 4.6 mph ESE7.4 kmh ESE 4.6 mph7.4 kmh 30.23 in1023.7 mb - 0.00 in0.0 mm 0.01 in0.3 mm
02:00 AM 54.1°F12.3°C 53.0°F11.7°C 96% 5.8 mph E9.3 kmh E 5.8 mph9.3 kmh 30.22 in1023.4 mb - 0.00 in0.0 mm 0.01 in0.3 mm
01:30 AM 54.1°F12.3°C 53.0°F11.7°C 96% 2.3 mph ESE3.7 kmh ESE 2.3 mph3.7 kmh 30.24 in1024.0 mb - 0.00 in0.0 mm 0.01 in0.3 mm
01:00 AM 54.0°F12.2°C 52.9°F11.6°C 96% 2.3 mph E3.7 kmh E 3.5 mph5.6 kmh 30.23 in1023.7 mb - 0.01 in0.3 mm 0.01 in0.3 mm
12:00 AM 54.4°F12.4°C 52.4°F11.3°C 93% 3.5 mph SE5.6 kmh SE 4.6 mph7.4 kmh 30.26 in1024.7 mb - 0.01 in0.3 mm 0.01 in0.3 mm